Time;durP1;ratioP1;P1;durP2;ratioP2;P2;SDS_P1;SDS_P2;PMS_P1;PMS_P2;Temp;Humidity;BMP_temperature;BMP_pressure;BME280_temperature;BME280_humidity;BME280_pressure;Samples;Min_cycle;Max_cycle;Signal;HPM_P1;HPM_P2
2021/01/11 00:01:46;;;;;;;9.45;6.90;;;16.90;99.90;;;;;;5073063;28;20380;-67
2021/01/11 00:04:12;;;;;;;7.07;6.05;;;16.90;99.90;;;;;;5073072;28;20072;-67
2021/01/11 00:06:39;;;;;;;7.97;6.75;;;16.80;99.90;;;;;;5071982;28;20105;-68
2021/01/11 00:09:05;;;;;;;9.88;7.50;;;16.80;99.90;;;;;;5073316;28;20028;-67
2021/01/11 00:11:32;;;;;;;9.18;6.85;;;16.80;99.90;;;;;;5073352;28;20017;-67
2021/01/11 00:13:59;;;;;;;11.55;7.15;;;16.70;99.90;;;;;;5073483;28;20340;-67
2021/01/11 00:16:25;;;;;;;8.32;6.55;;;16.70;99.90;;;;;;5073282;28;20028;-67
2021/01/11 00:18:51;;;;;;;8.65;6.90;;;16.60;99.90;;;;;;5072854;28;20035;-67
2021/01/11 00:21:16;;;;;;;10.20;6.82;;;16.60;99.90;;;;;;5073081;28;20376;-67
2021/01/11 00:23:43;;;;;;;9.27;6.95;;;16.60;99.90;;;;;;5072599;28;20048;-67
2021/01/11 00:26:10;;;;;;;8.38;6.72;;;16.60;99.90;;;;;;5072503;28;20074;-67
2021/01/11 00:28:38;;;;;;;7.90;6.50;;;16.60;99.90;;;;;;5072481;28;20039;-67
2021/01/11 00:31:03;;;;;;;8.77;6.93;;;16.50;99.90;;;;;;5072625;28;20377;-67
2021/01/11 00:33:29;;;;;;;8.23;6.68;;;16.50;99.90;;;;;;5072977;28;20077;-67
2021/01/11 00:35:54;;;;;;;9.45;7.22;;;16.50;99.90;;;;;;5072209;28;20025;-67
2021/01/11 00:38:20;;;;;;;8.23;6.47;;;16.50;99.90;;;;;;5072689;28;20033;-67
2021/01/11 00:40:45;;;;;;;9.75;7.07;;;16.40;99.90;;;;;;5072183;28;20519;-66
2021/01/11 00:43:11;;;;;;;9.32;7.28;;;16.40;99.90;;;;;;5072590;28;20402;-66
2021/01/11 00:45:37;;;;;;;9.02;7.05;;;16.40;99.90;;;;;;5072231;28;20134;-67
2021/01/11 00:48:02;;;;;;;9.75;7.18;;;16.40;99.90;;;;;;5072139;28;20028;-66
2021/01/11 00:50:28;;;;;;;9.05;7.15;;;16.40;99.90;;;;;;5072653;28;20029;-67
2021/01/11 00:52:53;;;;;;;8.77;6.80;;;16.30;99.90;;;;;;5072098;28;20472;-67
2021/01/11 00:55:19;;;;;;;8.32;6.80;;;16.30;99.90;;;;;;5070663;28;20021;-67
2021/01/11 00:57:45;;;;;;;8.82;7.00;;;16.20;99.90;;;;;;5072023;28;20490;-67
2021/01/11 01:00:11;;;;;;;9.07;7.07;;;16.20;99.90;;;;;;5072053;28;20024;-67
2021/01/11 01:02:38;;;;;;;8.40;6.57;;;16.10;99.90;;;;;;5072257;28;20021;-67
2021/01/11 01:05:10;;;;;;;8.68;6.85;;;16.10;99.90;;;;;;5071773;28;20549;-67
2021/01/11 01:07:39;;;;;;;9.90;6.80;;;16.10;99.90;;;;;;5071764;28;20059;-67
2021/01/11 01:10:05;;;;;;;9.05;6.90;;;16.10;99.90;;;;;;5071984;28;20070;-67
2021/01/11 01:12:32;;;;;;;8.63;6.43;;;16.10;99.90;;;;;;5072344;28;20031;-67
2021/01/11 01:14:57;;;;;;;8.80;6.25;;;16.00;99.90;;;;;;5071768;28;20078;-67
2021/01/11 01:17:23;;;;;;;7.63;6.50;;;16.00;99.90;;;;;;5071943;28;20020;-67
2021/01/11 01:19:48;;;;;;;7.85;6.45;;;16.00;99.90;;;;;;5071688;28;20037;-68
2021/01/11 01:22:14;;;;;;;9.05;6.85;;;16.00;99.90;;;;;;5071817;28;20055;-68
2021/01/11 01:24:40;;;;;;;10.18;7.07;;;16.00;99.90;;;;;;5070999;28;20461;-67
2021/01/11 01:27:05;;;;;;;9.73;7.13;;;15.90;99.90;;;;;;5071376;28;20032;-67
2021/01/11 01:29:31;;;;;;;8.63;7.00;;;15.90;99.90;;;;;;5071868;28;20021;-67
2021/01/11 01:31:56;;;;;;;9.65;7.20;;;15.90;99.90;;;;;;5071480;28;20029;-67
2021/01/11 01:34:22;;;;;;;9.95;6.80;;;15.90;99.90;;;;;;5071670;28;20100;-67
2021/01/11 01:36:48;;;;;;;9.02;6.65;;;15.80;99.90;;;;;;5071273;28;20097;-67
2021/01/11 01:39:13;;;;;;;9.30;7.05;;;15.80;99.90;;;;;;5071658;28;20025;-67
2021/01/11 01:41:39;;;;;;;9.43;6.25;;;15.70;99.90;;;;;;5071334;28;20044;-67
2021/01/11 01:44:05;;;;;;;8.50;6.85;;;15.70;99.90;;;;;;5071464;28;20037;-67
2021/01/11 01:46:32;;;;;;;10.43;6.90;;;15.70;99.90;;;;;;5071863;28;20037;-67
2021/01/11 01:48:59;;;;;;;8.77;6.82;;;15.70;99.90;;;;;;5071537;28;20037;-67
2021/01/11 01:51:25;;;;;;;9.05;6.50;;;15.70;99.90;;;;;;5071471;28;20103;-67
2021/01/11 01:53:51;;;;;;;8.63;6.50;;;15.60;99.90;;;;;;5071252;28;20052;-67
2021/01/11 01:56:18;;;;;;;9.93;6.50;;;15.60;99.90;;;;;;5071103;28;20055;-67
2021/01/11 01:58:46;;;;;;;8.30;6.35;;;15.60;99.90;;;;;;5071172;28;20096;-68
2021/01/11 02:01:13;;;;;;;7.93;6.65;;;15.60;99.90;;;;;;5071388;28;20036;-67
2021/01/11 02:03:38;;;;;;;7.53;6.18;;;15.60;99.90;;;;;;5070480;28;20487;-67
2021/01/11 02:06:05;;;;;;;7.25;6.13;;;15.60;99.90;;;;;;5071213;28;20037;-67
2021/01/11 02:08:39;;;;;;;7.97;6.30;;;15.50;99.90;;;;;;5071544;28;20500;-67
2021/01/11 02:11:56;;;;;;;10.10;6.70;;;15.50;99.90;;;;;;5071282;28;20480;-68
2021/01/11 02:14:33;;;;;;;6.78;5.78;;;15.50;99.90;;;;;;5069529;28;20041;-67
2021/01/11 02:17:08;;;;;;;8.02;6.22;;;15.50;99.90;;;;;;5071244;28;20033;-68
2021/01/11 02:19:39;;;;;;;10.85;6.20;;;15.50;99.90;;;;;;5070956;28;20021;-68
2021/01/11 02:22:14;;;;;;;7.95;6.07;;;15.50;99.90;;;;;;5071152;28;20029;-67
2021/01/11 02:24:45;;;;;;;7.75;5.75;;;15.50;99.90;;;;;;5070378;28;20471;-68
2021/01/11 02:27:26;;;;;;;6.78;5.18;;;15.50;99.90;;;;;;5073939;28;20032;-67
2021/01/11 02:29:56;;;;;;;7.70;6.45;;;15.50;99.90;;;;;;5073571;28;20025;-68
2021/01/11 02:32:23;;;;;;;7.88;6.00;;;15.50;99.90;;;;;;5074668;28;20028;-67
2021/01/11 02:34:52;;;;;;;6.85;5.53;;;15.40;99.90;;;;;;5074367;28;20024;-67
2021/01/11 02:37:18;;;;;;;8.77;5.75;;;15.40;99.90;;;;;;5074973;28;20028;-68
2021/01/11 02:39:44;;;;;;;7.43;5.70;;;15.30;99.90;;;;;;5074766;28;20372;-67
2021/01/11 02:42:10;;;;;;;6.60;5.50;;;15.30;99.90;;;;;;5074688;28;20070;-67
2021/01/11 02:44:35;;;;;;;7.47;5.50;;;15.30;99.90;;;;;;5074394;28;20048;-67
2021/01/11 02:47:01;;;;;;;6.82;5.03;;;15.30;99.90;;;;;;5074828;28;20108;-68
2021/01/11 02:49:34;;;;;;;7.43;5.35;;;15.30;99.90;;;;;;5074983;28;20024;-67
2021/01/11 02:52:17;;;;;;;7.47;5.00;;;15.30;99.90;;;;;;5073914;28;20056;-67
2021/01/11 02:54:52;;;;;;;9.43;5.75;;;15.20;99.90;;;;;;5074128;28;20021;-67
2021/01/11 02:57:44;;;;;;;7.82;5.60;;;15.20;99.90;;;;;;5074591;28;20202;-67
2021/01/11 03:00:11;;;;;;;9.38;5.40;;;15.20;99.90;;;;;;5074467;28;20380;-67
2021/01/11 03:02:42;;;;;;;6.03;5.13;;;15.20;99.90;;;;;;5074245;28;20047;-66
2021/01/11 03:05:08;;;;;;;7.18;5.60;;;15.20;99.90;;;;;;5074343;28;20036;-67
2021/01/11 03:07:34;;;;;;;7.00;5.30;;;15.20;99.90;;;;;;5073772;28;20029;-67
2021/01/11 03:10:00;;;;;;;8.45;4.93;;;15.20;99.90;;;;;;5074662;28;20028;-67
2021/01/11 03:12:25;;;;;;;7.00;5.15;;;15.10;99.90;;;;;;5074376;28;20027;-67
2021/01/11 03:14:51;;;;;;;6.60;4.95;;;15.10;99.90;;;;;;5074045;28;20796;-68
2021/01/11 03:17:16;;;;;;;4.95;4.20;;;15.10;99.90;;;;;;5074231;28;20131;-68
2021/01/11 03:19:42;;;;;;;6.97;5.15;;;15.10;99.90;;;;;;5073982;28;20028;-67
2021/01/11 03:22:08;;;;;;;7.15;5.10;;;15.10;99.90;;;;;;5074053;28;20074;-67
2021/01/11 03:24:33;;;;;;;6.28;4.60;;;15.10;99.90;;;;;;5073486;28;20392;-68
2021/01/11 03:27:00;;;;;;;6.45;4.43;;;15.10;99.90;;;;;;5074378;28;20024;-67
2021/01/11 03:29:25;;;;;;;6.72;4.85;;;15.10;99.90;;;;;;5073957;28;20488;-67
2021/01/11 03:31:51;;;;;;;5.70;4.60;;;15.10;99.90;;;;;;5073919;28;20036;-67
2021/01/11 03:34:17;;;;;;;7.45;4.78;;;15.00;99.90;;;;;;5073617;28;20051;-67
2021/01/11 03:36:42;;;;;;;6.03;4.88;;;15.00;99.90;;;;;;5072893;28;20036;-67
2021/01/11 03:39:10;;;;;;;5.55;4.50;;;15.00;99.90;;;;;;5073870;28;20028;-67
2021/01/11 03:41:38;;;;;;;6.30;4.30;;;15.00;99.90;;;;;;5073524;28;20111;-67
2021/01/11 03:44:04;;;;;;;6.97;4.40;;;14.90;99.90;;;;;;5073135;28;20028;-67
2021/01/11 03:46:30;;;;;;;6.55;5.07;;;14.90;99.90;;;;;;5074309;28;20035;-67
2021/01/11 03:48:56;;;;;;;5.53;4.20;;;14.90;99.90;;;;;;5073541;28;20021;-67
2021/01/11 03:51:22;;;;;;;5.68;4.28;;;14.90;99.90;;;;;;5073190;28;20032;-67
2021/01/11 03:53:48;;;;;;;5.53;4.50;;;14.90;99.90;;;;;;5073363;28;20020;-68
2021/01/11 03:56:14;;;;;;;9.38;4.72;;;14.90;99.90;;;;;;5073454;28;20051;-67
2021/01/11 03:58:39;;;;;;;5.70;4.57;;;14.90;99.90;;;;;;5072171;28;20023;-67
2021/01/11 04:01:05;;;;;;;6.45;4.30;;;14.80;99.90;;;;;;5073385;28;20071;-65
2021/01/11 04:03:31;;;;;;;9.57;4.07;;;14.80;99.90;;;;;;5073595;28;20028;-67
2021/01/11 04:05:58;;;;;;;6.53;4.00;;;14.90;99.90;;;;;;5073453;28;20028;-66
2021/01/11 04:08:24;;;;;;;5.75;4.28;;;14.80;99.90;;;;;;5073336;28;20043;-66
2021/01/11 04:10:51;;;;;;;5.43;4.05;;;14.80;99.90;;;;;;5073083;28;20028;-66
2021/01/11 04:13:17;;;;;;;6.25;4.30;;;14.80;99.90;;;;;;5073138;28;20027;-66
2021/01/11 04:15:43;;;;;;;6.20;4.00;;;14.80;99.90;;;;;;5072933;28;20016;-67
2021/01/11 04:18:09;;;;;;;4.90;3.65;;;14.80;99.90;;;;;;5073088;28;20407;-67
2021/01/11 04:20:35;;;;;;;5.20;3.78;;;14.80;99.90;;;;;;5072844;28;20025;-66
2021/01/11 04:23:02;;;;;;;5.25;3.67;;;14.70;99.90;;;;;;5073280;28;20086;-67
2021/01/11 04:25:28;;;;;;;5.68;3.88;;;14.70;99.90;;;;;;5072766;28;20043;-67
2021/01/11 04:27:58;;;;;;;6.03;3.90;;;14.70;99.90;;;;;;5072610;28;20029;-67
2021/01/11 04:30:24;;;;;;;5.65;4.15;;;14.70;99.90;;;;;;5072836;28;20020;-66
2021/01/11 04:32:50;;;;;;;5.00;3.58;;;14.70;99.90;;;;;;5072684;28;20024;-66
2021/01/11 04:35:16;;;;;;;4.47;3.33;;;14.70;99.90;;;;;;5072747;28;20033;-65
2021/01/11 04:37:42;;;;;;;5.25;3.80;;;14.70;99.90;;;;;;5072371;28;20468;-67
2021/01/11 04:40:10;;;;;;;4.90;3.80;;;14.70;99.90;;;;;;5072568;28;20033;-67
2021/01/11 04:42:52;;;;;;;5.03;3.58;;;14.60;99.90;;;;;;5072314;28;20025;-66
2021/01/11 04:45:19;;;;;;;5.30;3.65;;;14.60;99.90;;;;;;5072474;28;20423;-65
2021/01/11 04:47:51;;;;;;;6.00;3.63;;;14.60;99.90;;;;;;5072332;28;20032;-65
2021/01/11 04:50:17;;;;;;;5.45;3.70;;;14.60;99.90;;;;;;5070629;28;20048;-66
2021/01/11 04:52:45;;;;;;;4.82;3.45;;;14.60;99.90;;;;;;5072212;28;20082;-66
2021/01/11 04:55:12;;;;;;;5.57;3.83;;;14.60;99.90;;;;;;5072179;28;20086;-66
2021/01/11 04:57:50;;;;;;;5.28;3.72;;;14.60;99.90;;;;;;5071840;28;20033;-67
2021/01/11 05:00:20;;;;;;;4.13;3.45;;;14.50;99.90;;;;;;5072302;28;20063;-66
2021/01/11 05:03:09;;;;;;;4.60;3.38;;;14.50;99.90;;;;;;5072024;28;20024;-66
2021/01/11 05:05:40;;;;;;;4.05;3.03;;;14.50;99.90;;;;;;5069977;28;20131;-66
2021/01/11 05:08:06;;;;;;;4.45;3.30;;;14.50;99.90;;;;;;5071697;28;20461;-66
2021/01/11 05:10:37;;;;;;;4.00;3.20;;;14.50;99.90;;;;;;5071888;28;20036;-67
2021/01/11 05:13:05;;;;;;;3.95;3.00;;;14.40;99.90;;;;;;5072083;28;20376;-67
2021/01/11 05:15:33;;;;;;;4.97;3.22;;;14.40;99.90;;;;;;5071767;28;20032;-67
2021/01/11 05:17:59;;;;;;;4.10;3.22;;;14.40;99.90;;;;;;5072244;28;20025;-67
2021/01/11 05:20:27;;;;;;;3.65;3.05;;;14.40;99.90;;;;;;5071929;28;20021;-67
2021/01/11 05:22:54;;;;;;;3.85;2.78;;;14.40;99.90;;;;;;5071385;28;20106;-67
2021/01/11 05:25:22;;;;;;;4.10;3.20;;;14.30;99.90;;;;;;5071306;28;20079;-68
2021/01/11 05:28:08;;;;;;;4.53;3.45;;;14.30;99.90;;;;;;5071729;28;20036;-68
2021/01/11 05:30:42;;;;;;;3.17;2.88;;;14.30;99.90;;;;;;5071295;28;20040;-67
2021/01/11 05:33:16;;;;;;;4.00;2.80;;;14.30;99.90;;;;;;5071317;28;20064;-67
2021/01/11 05:35:41;;;;;;;4.32;3.30;;;14.20;99.90;;;;;;5071498;28;20037;-67
2021/01/11 05:38:19;;;;;;;4.07;3.22;;;14.30;99.90;;;;;;5071703;28;20032;-67
2021/01/11 05:40:46;;;;;;;3.80;3.08;;;14.20;99.90;;;;;;5070996;28;20032;-68
2021/01/11 05:43:19;;;;;;;4.72;3.00;;;14.20;99.90;;;;;;5071227;28;20056;-67
2021/01/11 05:45:45;;;;;;;4.18;2.95;;;14.20;99.90;;;;;;5071197;28;20028;-66
2021/01/11 05:48:13;;;;;;;4.78;3.42;;;14.20;99.90;;;;;;5071555;28;20029;-65
2021/01/11 05:50:46;;;;;;;3.90;3.03;;;14.20;99.90;;;;;;5071286;28;20036;-66
2021/01/11 05:53:21;;;;;;;4.72;3.13;;;14.20;99.90;;;;;;5071402;28;20039;-67
2021/01/11 05:55:48;;;;;;;3.33;2.70;;;14.20;99.90;;;;;;5071160;28;20036;-65
2021/01/11 05:58:14;;;;;;;3.70;2.78;;;14.10;99.90;;;;;;5071367;28;20037;-66
2021/01/11 06:00:41;;;;;;;3.80;2.60;;;14.10;99.90;;;;;;5069750;28;20017;-67
2021/01/11 06:03:08;;;;;;;4.35;2.90;;;14.10;99.90;;;;;;5070905;28;20021;-67
2021/01/11 06:05:35;;;;;;;3.75;3.08;;;14.10;99.90;;;;;;5070206;28;20040;-66
2021/01/11 06:08:02;;;;;;;3.42;2.58;;;14.10;99.90;;;;;;5071676;28;20078;-68
2021/01/11 06:10:28;;;;;;;3.55;3.08;;;14.10;99.90;;;;;;5071555;28;20255;-67
2021/01/11 06:12:54;;;;;;;3.40;2.70;;;14.10;99.90;;;;;;5071006;28;20473;-65
2021/01/11 06:15:25;;;;;;;2.50;2.30;;;14.10;99.90;;;;;;5070138;28;20086;-67
2021/01/11 06:17:52;;;;;;;3.30;2.20;;;14.10;99.90;;;;;;5070378;28;20027;-68
2021/01/11 06:20:19;;;;;;;3.00;2.38;;;14.10;99.90;;;;;;5070415;28;20033;-68
2021/01/11 06:22:44;;;;;;;3.08;2.05;;;14.20;99.90;;;;;;5071137;28;20025;-65
2021/01/11 06:25:19;;;;;;;4.22;2.47;;;14.20;99.90;;;;;;5071099;28;20480;-68
2021/01/11 06:27:54;;;;;;;4.85;2.38;;;14.30;99.90;;;;;;5070937;28;20228;-67
2021/01/11 06:30:36;;;;;;;2.33;1.73;;;14.40;99.90;;;;;;5070874;28;20024;-68
2021/01/11 06:33:08;;;;;;;3.25;2.03;;;14.40;99.90;;;;;;5070923;28;20060;-69
2021/01/11 06:35:48;;;;;;;3.47;2.08;;;14.50;99.90;;;;;;5070912;28;20480;-65
2021/01/11 06:38:19;;;;;;;3.97;1.95;;;14.50;99.90;;;;;;5070875;28;20055;-64
2021/01/11 06:41:15;;;;;;;2.58;1.75;;;14.70;99.90;;;;;;5070518;28;20027;-64
2021/01/11 06:43:50;;;;;;;3.03;1.67;;;14.80;99.90;;;;;;5066280;28;20032;-72
2021/01/11 06:46:28;;;;;;;2.88;1.70;;;14.90;99.90;;;;;;5071038;28;20029;-71
2021/01/11 06:49:00;;;;;;;3.25;1.73;;;15.00;99.90;;;;;;5069215;28;20020;-70
2021/01/11 06:51:30;;;;;;;2.28;1.80;;;15.00;99.90;;;;;;5070827;28;20492;-72
2021/01/11 06:54:33;;;;;;;2.75;1.75;;;15.00;99.90;;;;;;5070841;28;20037;-69
2021/01/11 06:57:17;;;;;;;3.05;1.83;;;15.10;99.90;;;;;;5064478;28;20123;-72
2021/01/11 06:59:48;;;;;;;2.08;1.48;;;15.20;99.90;;;;;;5070370;28;20385;-70
2021/01/11 07:02:24;;;;;;;2.88;1.60;;;15.30;99.90;;;;;;5069182;28;20060;-69
2021/01/11 07:04:50;;;;;;;2.78;1.40;;;15.30;99.90;;;;;;5070217;28;20043;-70
2021/01/11 07:07:21;;;;;;;5.57;1.58;;;15.40;99.90;;;;;;5070381;28;20025;-69
2021/01/11 07:09:58;;;;;;;6.07;3.50;;;15.40;99.90;;;;;;5068921;28;20121;-69
2021/01/11 07:12:25;;;;;;;7.68;5.80;;;15.50;99.90;;;;;;5072311;28;20036;-68
2021/01/11 07:15:01;;;;;;;6.38;5.43;;;14.80;99.90;;;;;;5073781;28;20052;-69
2021/01/11 07:17:34;;;;;;;5.63;4.00;;;14.50;99.90;;;;;;5074299;28;20052;-70
2021/01/11 07:19:59;;;;;;;3.63;2.85;;;14.80;99.90;;;;;;5073704;28;20028;-68
2021/01/11 07:22:25;;;;;;;4.03;3.13;;;14.90;99.90;;;;;;5074096;28;20039;-68
2021/01/11 07:24:50;;;;;;;6.35;4.25;;;15.00;99.90;;;;;;5073072;28;20040;-70
2021/01/11 07:27:18;;;;;;;10.40;5.13;;;15.00;99.90;;;;;;5073653;28;20362;-67
2021/01/11 07:29:44;;;;;;;9.25;5.47;;;15.00;99.90;;;;;;5073910;28;20090;-68
2021/01/11 07:32:10;;;;;;;14.52;6.90;;;14.90;99.90;;;;;;5073499;28;20362;-68
2021/01/11 07:34:35;;;;;;;23.15;8.90;;;14.90;99.90;;;;;;5073783;28;20040;-68
2021/01/11 07:37:03;;;;;;;19.02;8.45;;;14.90;99.90;;;;;;5073713;28;20028;-67
2021/01/11 07:39:35;;;;;;;16.95;8.32;;;15.00;99.90;;;;;;5073067;28;20104;-67
2021/01/11 07:42:02;;;;;;;16.10;8.10;;;15.00;99.90;;;;;;5073818;28;20472;-69
2021/01/11 07:44:34;;;;;;;20.10;8.30;;;14.90;99.90;;;;;;5073949;28;20033;-67
2021/01/11 07:47:05;;;;;;;14.35;7.53;;;14.90;99.90;;;;;;5073834;28;20032;-70
2021/01/11 07:49:34;;;;;;;13.85;6.28;;;15.20;99.90;;;;;;5073497;28;20096;-66
2021/01/11 07:52:24;;;;;;;13.25;6.50;;;15.60;99.90;;;;;;5073832;28;20047;-68
2021/01/11 07:55:00;;;;;;;11.70;6.38;;;16.00;99.90;;;;;;5074320;28;20037;-69
2021/01/11 07:57:30;;;;;;;10.30;5.30;;;16.30;99.90;;;;;;5074047;28;20027;-70
2021/01/11 08:00:11;;;;;;;10.25;5.60;;;16.40;99.90;;;;;;5072492;28;20028;-69
2021/01/11 08:02:37;;;;;;;9.93;5.28;;;16.60;99.90;;;;;;5093652;28;20032;-70
2021/01/11 08:05:04;;;;;;;9.88;4.68;;;16.70;99.90;;;;;;5073055;28;20093;-78
2021/01/11 08:07:32;;;;;;;10.30;4.55;;;17.10;99.90;;;;;;5072543;28;20052;-71
2021/01/11 08:09:59;;;;;;;8.40;4.18;;;18.00;99.80;;;;;;5073817;28;20583;-77
2021/01/11 08:12:28;;;;;;;6.60;3.55;;;18.80;99.50;;;;;;5073544;28;20016;-78
2021/01/11 08:15:03;;;;;;;6.80;3.22;;;19.20;98.80;;;;;;5073231;28;20115;-78
2021/01/11 08:17:30;;;;;;;6.85;3.35;;;19.60;98.80;;;;;;5073666;28;20032;-76
2021/01/11 08:19:58;;;;;;;5.70;2.95;;;20.00;98.50;;;;;;5072937;28;20016;-72
2021/01/11 08:22:27;;;;;;;6.13;2.50;;;20.20;98.70;;;;;;5073143;28;20086;-77
2021/01/11 08:24:58;;;;;;;3.75;2.47;;;20.40;98.50;;;;;;5072660;28;20400;-78
2021/01/11 08:27:40;;;;;;;4.35;2.20;;;20.60;98.00;;;;;;5071391;28;20392;-76
2021/01/11 08:30:11;;;;;;;3.95;2.00;;;20.80;97.60;;;;;;5070456;28;20073;-74
2021/01/11 08:32:38;;;;;;;3.42;1.92;;;21.10;97.60;;;;;;5072575;28;20028;-70
2021/01/11 08:35:11;;;;;;;2.67;1.63;;;21.50;97.30;;;;;;5072699;28;20376;-70
2021/01/11 08:37:37;;;;;;;3.40;1.67;;;21.70;97.20;;;;;;5072521;28;20032;-69
2021/01/11 08:40:23;;;;;;;3.03;1.65;;;21.80;97.10;;;;;;5072902;28;20154;-71
2021/01/11 08:42:48;;;;;;;2.85;1.60;;;22.10;97.00;;;;;;5068310;28;20032;-71
2021/01/11 08:45:32;;;;;;;2.80;1.50;;;22.30;96.90;;;;;;5072212;28;20472;-72
2021/01/11 08:48:06;;;;;;;3.30;1.75;;;21.80;97.30;;;;;;5072940;28;20020;-71
2021/01/11 08:50:37;;;;;;;1.73;1.33;;;21.00;97.90;;;;;;5072614;28;20354;-70
2021/01/11 08:53:21;;;;;;;2.00;1.38;;;20.10;98.80;;;;;;5072536;28;20487;-70
2021/01/11 08:56:00;;;;;;;2.55;1.65;;;19.50;99.60;;;;;;5057557;28;20111;-68
2021/01/11 08:58:27;;;;;;;2.17;1.30;;;19.10;99.90;;;;;;5072595;28;20016;-69
2021/01/11 09:01:14;;;;;;;2.30;1.50;;;18.90;99.90;;;;;;5071989;28;20040;-68
2021/01/11 09:03:43;;;;;;;2.40;1.58;;;18.70;99.90;;;;;;5071510;28;20032;-70
2021/01/11 09:06:09;;;;;;;2.83;1.42;;;18.50;99.90;;;;;;5072221;28;20040;-69
2021/01/11 09:08:35;;;;;;;2.72;1.65;;;18.40;99.90;;;;;;5072074;28;20090;-68
2021/01/11 09:11:10;;;;;;;2.45;1.35;;;18.30;99.90;;;;;;5071772;28;20480;-68
2021/01/11 09:13:36;;;;;;;3.13;1.60;;;18.20;99.90;;;;;;5066743;28;20021;-69
2021/01/11 09:16:15;;;;;;;2.67;1.67;;;18.10;99.90;;;;;;5071400;28;20032;-69
2021/01/11 09:18:40;;;;;;;1.50;1.30;;;18.10;99.90;;;;;;5052552;28;20024;-69
2021/01/11 09:21:07;;;;;;;2.60;1.38;;;18.00;99.90;;;;;;5066702;28;20028;-69
2021/01/11 09:23:33;;;;;;;2.38;1.40;;;18.00;99.90;;;;;;5070807;28;20040;-70
2021/01/11 09:26:00;;;;;;;3.55;1.55;;;17.90;99.90;;;;;;5070798;28;20036;-70
2021/01/11 09:28:27;;;;;;;3.65;1.70;;;17.90;99.90;;;;;;5071720;28;20029;-68
2021/01/11 09:30:54;;;;;;;2.55;2.00;;;17.80;99.90;;;;;;5071626;28;20035;-66
2021/01/11 09:33:19;;;;;;;2.67;1.70;;;17.60;99.90;;;;;;5071211;28;20506;-68
2021/01/11 09:35:45;;;;;;;1.80;1.40;;;17.90;99.90;;;;;;5071050;28;20025;-65
2021/01/11 09:38:12;;;;;;;1.50;1.10;;;18.80;99.90;;;;;;5070481;28;20024;-68
2021/01/11 09:40:38;;;;;;;1.55;1.02;;;19.60;99.90;;;;;;5071571;28;20025;-68
2021/01/11 09:43:03;;;;;;;1.83;1.02;;;20.30;99.90;;;;;;5072117;28;20441;-68
2021/01/11 09:45:29;;;;;;;1.50;0.90;;;20.70;99.70;;;;;;5071999;28;20064;-68
2021/01/11 09:47:55;;;;;;;1.27;0.70;;;21.00;99.30;;;;;;5070409;28;20478;-67
2021/01/11 09:50:21;;;;;;;2.58;1.00;;;21.30;99.10;;;;;;5071180;28;20116;-69
2021/01/11 09:52:48;;;;;;;1.45;0.90;;;21.60;98.80;;;;;;5071085;28;20020;-68
2021/01/11 09:55:15;;;;;;;1.85;0.80;;;21.80;98.60;;;;;;5070598;28;20020;-65
2021/01/11 09:57:41;;;;;;;1.70;0.98;;;22.10;98.40;;;;;;5071248;28;20024;-67
2021/01/11 10:00:11;;;;;;;1.65;0.80;;;22.20;98.10;;;;;;5071458;28;20036;-67
2021/01/11 10:02:38;;;;;;;1.88;0.90;;;22.50;98.00;;;;;;5070909;28;20365;-66
2021/01/11 10:05:04;;;;;;;1.40;0.77;;;22.70;97.80;;;;;;5069378;28;20024;-67
2021/01/11 10:07:30;;;;;;;1.00;0.70;;;22.90;97.60;;;;;;5071180;28;20058;-68
2021/01/11 10:09:55;;;;;;;1.98;0.80;;;23.00;97.40;;;;;;5069996;28;20024;-66
2021/01/11 10:12:21;;;;;;;1.02;0.70;;;23.20;97.20;;;;;;5071124;28;20039;-65
2021/01/11 10:14:46;;;;;;;1.27;0.70;;;23.40;97.10;;;;;;5070800;28;20060;-65
2021/01/11 10:17:12;;;;;;;1.30;0.70;;;23.50;96.90;;;;;;5071010;28;20025;-68
2021/01/11 10:19:38;;;;;;;1.15;0.60;;;23.60;96.80;;;;;;5070917;28;20552;-64
2021/01/11 10:22:04;;;;;;;1.27;0.70;;;23.60;96.90;;;;;;5070894;28;20024;-67
2021/01/11 10:24:29;;;;;;;1.08;0.70;;;22.90;97.20;;;;;;5071378;28;20021;-69
2021/01/11 10:26:56;;;;;;;1.10;0.82;;;22.00;97.90;;;;;;5070768;28;20035;-65
2021/01/11 10:29:23;;;;;;;1.15;1.00;;;21.40;98.70;;;;;;5070885;28;20024;-66
2021/01/11 10:31:50;;;;;;;1.20;0.80;;;20.80;99.40;;;;;;5070722;28;20104;-66
2021/01/11 10:34:19;;;;;;;1.23;1.05;;;20.50;99.90;;;;;;5070649;28;20500;-67
2021/01/11 10:36:54;;;;;;;1.77;0.95;;;20.20;99.90;;;;;;5070899;28;20028;-67
2021/01/11 10:39:22;;;;;;;1.10;0.77;;;20.70;99.90;;;;;;5070588;28;20472;-68
2021/01/11 10:41:52;;;;;;;0.90;0.68;;;21.50;99.70;;;;;;5070735;28;20040;-72
2021/01/11 10:44:17;;;;;;;2.38;0.50;;;22.00;99.10;;;;;;5071157;28;20025;-68
2021/01/11 10:46:43;;;;;;;1.88;0.70;;;22.50;98.70;;;;;;5070997;28;20034;-68
2021/01/11 10:49:08;;;;;;;1.35;0.50;;;22.70;98.40;;;;;;5074524;28;20055;-67
2021/01/11 10:51:34;;;;;;;1.42;0.73;;;22.90;98.20;;;;;;5074681;28;20037;-68
2021/01/11 10:54:01;;;;;;;1.00;0.70;;;23.00;98.10;;;;;;5073880;28;20468;-67
2021/01/11 10:56:26;;;;;;;1.88;0.80;;;23.20;97.80;;;;;;5074309;28;20028;-62
2021/01/11 10:58:52;;;;;;;0.90;0.40;;;23.40;97.70;;;;;;5074213;28;20040;-66
2021/01/11 11:01:17;;;;;;;0.85;0.65;;;23.20;98.00;;;;;;5073514;28;20111;-66
2021/01/11 11:03:43;;;;;;;1.33;0.88;;;22.50;98.10;;;;;;5082512;28;20037;-68
2021/01/11 11:06:09;;;;;;;1.65;0.85;;;21.90;98.70;;;;;;5078768;28;20050;-64
2021/01/11 11:08:35;;;;;;;1.40;0.70;;;21.40;99.10;;;;;;5094372;28;20027;-63
2021/01/11 11:11:01;;;;;;;1.58;0.85;;;21.10;99.60;;;;;;5086774;28;20039;-63
2021/01/11 11:13:26;;;;;;;1.80;1.00;;;20.80;99.80;;;;;;5073863;28;20035;-63
2021/01/11 11:15:52;;;;;;;1.42;1.10;;;20.70;99.90;;;;;;5073532;28;20499;-63
2021/01/11 11:18:18;;;;;;;3.63;1.38;;;20.40;99.90;;;;;;5072887;28;20495;-60
2021/01/11 11:20:45;;;;;;;1.63;1.10;;;20.20;99.90;;;;;;5073788;28;20056;-60
2021/01/11 11:23:11;;;;;;;1.77;1.25;;;20.00;99.90;;;;;;5074332;28;20028;-60
2021/01/11 11:25:37;;;;;;;1.25;1.05;;;19.90;99.90;;;;;;5073800;28;20045;-61
2021/01/11 11:28:04;;;;;;;2.97;1.30;;;19.70;99.90;;;;;;5074115;28;20354;-62
2021/01/11 11:30:30;;;;;;;2.20;1.50;;;19.70;99.90;;;;;;5073969;28;20024;-64
2021/01/11 11:32:56;;;;;;;2.08;1.20;;;19.60;99.90;;;;;;5073232;28;20033;-64
2021/01/11 11:35:22;;;;;;;2.65;1.10;;;19.50;99.90;;;;;;5074174;28;20775;-63
2021/01/11 11:37:48;;;;;;;2.30;1.48;;;19.40;99.90;;;;;;5073015;28;20019;-64
2021/01/11 11:40:15;;;;;;;1.42;1.23;;;19.30;99.90;;;;;;5073152;28;20158;-62
2021/01/11 11:42:42;;;;;;;1.92;1.40;;;19.20;99.90;;;;;;5072624;28;20108;-62
2021/01/11 11:45:13;;;;;;;1.98;1.35;;;19.10;99.90;;;;;;5072734;28;20484;-63
2021/01/11 11:47:41;;;;;;;6.40;1.80;;;19.00;99.90;;;;;;5066461;28;20059;-61
2021/01/11 11:50:08;;;;;;;2.83;1.63;;;18.80;99.90;;;;;;5072616;28;20021;-62
2021/01/11 11:52:35;;;;;;;4.53;2.30;;;18.70;99.90;;;;;;5072729;28;20027;-61
2021/01/11 11:55:01;;;;;;;5.28;3.03;;;18.60;99.90;;;;;;5072639;28;20024;-61
2021/01/11 11:57:27;;;;;;;15.07;7.20;;;18.50;99.70;;;;;;5071553;28;20542;-62
2021/01/11 11:59:52;;;;;;;13.50;5.47;;;18.70;98.90;;;;;;5073040;28;20086;-62
2021/01/11 12:02:18;;;;;;;14.85;6.07;;;18.80;98.90;;;;;;5072850;28;20028;-62
2021/01/11 12:04:43;;;;;;;11.90;5.72;;;18.80;98.70;;;;;;5072727;28;20041;-62
2021/01/11 12:07:16;;;;;;;12.60;5.75;;;18.60;98.80;;;;;;5073260;28;20020;-62
2021/01/11 12:09:42;;;;;;;12.38;5.95;;;18.50;98.90;;;;;;5071924;28;20031;-62
2021/01/11 12:12:08;;;;;;;11.13;5.57;;;18.40;99.20;;;;;;5073385;28;20484;-62
2021/01/11 12:14:34;;;;;;;13.45;6.18;;;18.30;99.20;;;;;;5072947;28;20108;-61
2021/01/11 12:17:01;;;;;;;12.43;5.80;;;18.30;99.20;;;;;;5073570;28;20124;-61
2021/01/11 12:19:27;;;;;;;13.18;6.20;;;18.10;99.40;;;;;;5073304;28;20040;-63
2021/01/11 12:21:52;;;;;;;12.95;6.43;;;18.10;99.60;;;;;;5072943;28;20032;-63
2021/01/11 12:24:18;;;;;;;23.88;7.63;;;18.00;99.80;;;;;;5073035;28;20047;-62
2021/01/11 12:26:46;;;;;;;21.27;8.40;;;17.80;99.90;;;;;;5071670;28;20036;-62
2021/01/11 12:29:13;;;;;;;22.65;8.50;;;17.80;99.90;;;;;;5072930;28;20484;-61
2021/01/11 12:31:40;;;;;;;19.98;8.38;;;17.70;99.90;;;;;;5072905;28;20063;-61
2021/01/11 12:34:06;;;;;;;18.92;8.23;;;17.60;99.90;;;;;;5072942;28;20100;-61
2021/01/11 12:36:34;;;;;;;19.77;8.38;;;17.50;99.90;;;;;;5072669;28;20027;-61
2021/01/11 12:39:00;;;;;;;18.65;8.02;;;17.50;99.90;;;;;;5073093;28;20035;-62
2021/01/11 12:41:27;;;;;;;22.38;8.93;;;17.50;99.90;;;;;;5072196;28;20059;-63
2021/01/11 12:43:54;;;;;;;14.60;7.93;;;17.50;99.90;;;;;;5072190;28;20036;-63
2021/01/11 12:46:22;;;;;;;18.08;8.32;;;17.50;99.90;;;;;;5073504;28;20036;-63
2021/01/11 12:48:48;;;;;;;18.02;8.38;;;17.40;99.90;;;;;;5071990;28;20088;-62
2021/01/11 12:51:16;;;;;;;17.90;8.48;;;17.30;99.90;;;;;;5071436;28;20024;-63
2021/01/11 12:53:52;;;;;;;14.90;7.70;;;17.30;99.90;;;;;;5071431;28;20024;-63